sensor_id;sensor_type;location;lat;lon;timestamp;temperature;humidity
6355;DHT22;3210;48.708;9.030;2024-01-30T00:01:48;0.50;1.00
6355;DHT22;3210;48.708;9.030;2024-01-30T00:04:46;0.60;1.00
6355;DHT22;3210;48.708;9.030;2024-01-30T00:07:43;0.60;1.00
6355;DHT22;3210;48.708;9.030;2024-01-30T00:13:35;0.50;1.00
6355;DHT22;3210;48.708;9.030;2024-01-30T00:16:26;0.40;1.00
6355;DHT22;3210;48.708;9.030;2024-01-30T00:19:31;0.50;1.00
6355;DHT22;3210;48.708;9.030;2024-01-30T00:22:02;0.50;1.00
6355;DHT22;3210;48.708;9.030;2024-01-30T00:24:50;0.40;1.00
6355;DHT22;3210;48.708;9.030;2024-01-30T00:27:34;0.30;1.00
6355;DHT22;3210;48.708;9.030;2024-01-30T00:30:41;0.40;54.60
6355;DHT22;3210;48.708;9.030;2024-01-30T00:33:32;0.40;99.90
6355;DHT22;3210;48.708;9.030;2024-01-30T00:36:14;0.50;99.90
6355;DHT22;3210;48.708;9.030;2024-01-30T00:38:51;0.50;99.90
6355;DHT22;3210;48.708;9.030;2024-01-30T00:41:37;0.50;99.90
6355;DHT22;3210;48.708;9.030;2024-01-30T00:44:16;0.50;99.90
6355;DHT22;3210;48.708;9.030;2024-01-30T00:53:34;0.50;99.90
6355;DHT22;3210;48.708;9.030;2024-01-30T00:56:25;0.60;99.90
6355;DHT22;3210;48.708;9.030;2024-01-30T00:59:20;0.50;99.90
6355;DHT22;3210;48.708;9.030;2024-01-30T01:01:58;0.70;99.90
6355;DHT22;3210;48.708;9.030;2024-01-30T01:04:40;0.60;99.90
6355;DHT22;3210;48.708;9.030;2024-01-30T01:07:34;0.60;99.90
6355;DHT22;3210;48.708;9.030;2024-01-30T01:13:01;0.60;99.90
6355;DHT22;3210;48.708;9.030;2024-01-30T01:15:39;0.50;99.90
6355;DHT22;3210;48.708;9.030;2024-01-30T01:18:11;0.50;99.90
6355;DHT22;3210;48.708;9.030;2024-01-30T01:20:43;0.50;99.90
6355;DHT22;3210;48.708;9.030;2024-01-30T01:23:16;0.40;99.90
6355;DHT22;3210;48.708;9.030;2024-01-30T01:25:57;0.40;99.90
6355;DHT22;3210;48.708;9.030;2024-01-30T01:28:34;0.30;99.90
6355;DHT22;3210;48.708;9.030;2024-01-30T01:31:16;0.30;99.90
6355;DHT22;3210;48.708;9.030;2024-01-30T01:33:45;0.30;99.90
6355;DHT22;3210;48.708;9.030;2024-01-30T01:36:23;0.30;99.90
6355;DHT22;3210;48.708;9.030;2024-01-30T01:39:23;0.30;99.90
6355;DHT22;3210;48.708;9.030;2024-01-30T01:42:09;0.30;99.90
6355;DHT22;3210;48.708;9.030;2024-01-30T01:48:07;0.30;99.90
6355;DHT22;3210;48.708;9.030;2024-01-30T01:50:49;0.30;99.90
6355;DHT22;3210;48.708;9.030;2024-01-30T01:53:17;0.10;99.90
6355;DHT22;3210;48.708;9.030;2024-01-30T01:56:03;0.20;99.90
6355;DHT22;3210;48.708;9.030;2024-01-30T01:58:49;0.20;99.90
6355;DHT22;3210;48.708;9.030;2024-01-30T02:01:20;0.20;99.90
6355;DHT22;3210;48.708;9.030;2024-01-30T02:03:59;0.20;99.90
6355;DHT22;3210;48.708;9.030;2024-01-30T02:06:41;0.10;99.90
6355;DHT22;3210;48.708;9.030;2024-01-30T02:09:16;0.10;99.90
6355;DHT22;3210;48.708;9.030;2024-01-30T02:11:48;0.00;99.90
6355;DHT22;3210;48.708;9.030;2024-01-30T02:14:32;0.00;99.90
6355;DHT22;3210;48.708;9.030;2024-01-30T02:17:13;0.00;99.90
6355;DHT22;3210;48.708;9.030;2024-01-30T02:19:45;0.10;99.90
6355;DHT22;3210;48.708;9.030;2024-01-30T02:22:48;0.10;99.90
6355;DHT22;3210;48.708;9.030;2024-01-30T02:25:19;0.10;99.90
6355;DHT22;3210;48.708;9.030;2024-01-30T02:27:52;0.10;99.90
6355;DHT22;3210;48.708;9.030;2024-01-30T02:30:32;0.10;99.90
6355;DHT22;3210;48.708;9.030;2024-01-30T02:33:19;0.00;99.90
6355;DHT22;3210;48.708;9.030;2024-01-30T02:35:47;0.00;1.00
6355;DHT22;3210;48.708;9.030;2024-01-30T02:38:38;0.00;1.00
6355;DHT22;3210;48.708;9.030;2024-01-30T02:41:12;0.00;1.00
6355;DHT22;3210;48.708;9.030;2024-01-30T02:43:45;0.00;1.00
6355;DHT22;3210;48.708;9.030;2024-01-30T02:46:16;-0.10;99.90
6355;DHT22;3210;48.708;9.030;2024-01-30T02:48:47;-0.10;99.90
6355;DHT22;3210;48.708;9.030;2024-01-30T02:51:22;-0.10;99.90
6355;DHT22;3210;48.708;9.030;2024-01-30T02:54:25;-0.30;99.90
6355;DHT22;3210;48.708;9.030;2024-01-30T02:57:01;-0.30;1.00
6355;DHT22;3210;48.708;9.030;2024-01-30T02:59:42;-0.30;99.90
6355;DHT22;3210;48.708;9.030;2024-01-30T03:02:32;-0.10;99.90
6355;DHT22;3210;48.708;9.030;2024-01-30T03:05:16;-0.30;99.90
6355;DHT22;3210;48.708;9.030;2024-01-30T03:08:01;-0.10;99.90
6355;DHT22;3210;48.708;9.030;2024-01-30T03:10:52;-0.20;99.90
6355;DHT22;3210;48.708;9.030;2024-01-30T03:13:31;-0.20;99.90
6355;DHT22;3210;48.708;9.030;2024-01-30T03:16:12;-0.30;99.90
6355;DHT22;3210;48.708;9.030;2024-01-30T03:19:14;-0.40;99.90
6355;DHT22;3210;48.708;9.030;2024-01-30T03:21:53;-0.40;99.90
6355;DHT22;3210;48.708;9.030;2024-01-30T03:24:36;-0.40;99.90
6355;DHT22;3210;48.708;9.030;2024-01-30T03:33:38;-0.40;1.00
6355;DHT22;3210;48.708;9.030;2024-01-30T03:36:20;-0.40;1.00
6355;DHT22;3210;48.708;9.030;2024-01-30T03:38:59;-0.40;1.00
6355;DHT22;3210;48.708;9.030;2024-01-30T03:41:30;-0.40;1.00
6355;DHT22;3210;48.708;9.030;2024-01-30T03:44:06;-0.40;1.00
6355;DHT22;3210;48.708;9.030;2024-01-30T03:46:36;-0.40;1.00
6355;DHT22;3210;48.708;9.030;2024-01-30T03:49:37;-0.40;1.00
6355;DHT22;3210;48.708;9.030;2024-01-30T03:52:15;-0.50;1.00
6355;DHT22;3210;48.708;9.030;2024-01-30T03:54:44;-0.50;1.00
6355;DHT22;3210;48.708;9.030;2024-01-30T03:57:16;-0.50;1.00
6355;DHT22;3210;48.708;9.030;2024-01-30T03:59:48;-0.50;28.00
6355;DHT22;3210;48.708;9.030;2024-01-30T04:02:38;-0.50;45.10
6355;DHT22;3210;48.708;9.030;2024-01-30T04:05:36;-0.50;80.90
6355;DHT22;3210;48.708;9.030;2024-01-30T04:08:10;-0.50;98.50
6355;DHT22;3210;48.708;9.030;2024-01-30T04:10:50;-0.50;99.90
6355;DHT22;3210;48.708;9.030;2024-01-30T04:13:35;-0.50;99.90
6355;DHT22;3210;48.708;9.030;2024-01-30T04:16:25;-0.60;99.90
6355;DHT22;3210;48.708;9.030;2024-01-30T04:18:55;-0.60;99.90
6355;DHT22;3210;48.708;9.030;2024-01-30T04:21:54;-0.60;99.90
6355;DHT22;3210;48.708;9.030;2024-01-30T04:24:32;-0.50;99.90
6355;DHT22;3210;48.708;9.030;2024-01-30T04:27:03;-0.50;99.90
6355;DHT22;3210;48.708;9.030;2024-01-30T04:29:51;-0.50;1.00
6355;DHT22;3210;48.708;9.030;2024-01-30T04:32:26;-0.50;1.00
6355;DHT22;3210;48.708;9.030;2024-01-30T04:34:58;-0.50;1.00
6355;DHT22;3210;48.708;9.030;2024-01-30T04:37:43;-0.60;1.00
6355;DHT22;3210;48.708;9.030;2024-01-30T04:40:16;-0.70;1.00
6355;DHT22;3210;48.708;9.030;2024-01-30T04:42:45;-0.70;1.00
6355;DHT22;3210;48.708;9.030;2024-01-30T04:45:15;-0.60;1.00
6355;DHT22;3210;48.708;9.030;2024-01-30T04:47:51;-0.70;1.00
6355;DHT22;3210;48.708;9.030;2024-01-30T04:50:37;-0.60;1.00
6355;DHT22;3210;48.708;9.030;2024-01-30T04:53:21;-0.60;1.00
6355;DHT22;3210;48.708;9.030;2024-01-30T04:55:50;-0.60;1.00
6355;DHT22;3210;48.708;9.030;2024-01-30T04:58:27;-0.50;99.90
6355;DHT22;3210;48.708;9.030;2024-01-30T05:01:19;-0.60;99.90
6355;DHT22;3210;48.708;9.030;2024-01-30T05:04:00;-0.60;99.90
6355;DHT22;3210;48.708;9.030;2024-01-30T05:06:30;-0.60;99.90
6355;DHT22;3210;48.708;9.030;2024-01-30T05:12:17;-0.60;99.90
6355;DHT22;3210;48.708;9.030;2024-01-30T05:14:47;-0.60;1.00
6355;DHT22;3210;48.708;9.030;2024-01-30T05:17:15;-0.60;1.00
6355;DHT22;3210;48.708;9.030;2024-01-30T05:19:53;-0.70;1.00
6355;DHT22;3210;48.708;9.030;2024-01-30T05:22:25;-0.70;1.00
6355;DHT22;3210;48.708;9.030;2024-01-30T05:24:59;-0.80;1.00
6355;DHT22;3210;48.708;9.030;2024-01-30T05:27:33;-0.70;1.00
6355;DHT22;3210;48.708;9.030;2024-01-30T05:30:29;-0.70;1.00
6355;DHT22;3210;48.708;9.030;2024-01-30T05:33:17;-0.70;1.00
6355;DHT22;3210;48.708;9.030;2024-01-30T05:36:12;-0.70;1.00
6355;DHT22;3210;48.708;9.030;2024-01-30T05:42:09;-0.70;1.00
6355;DHT22;3210;48.708;9.030;2024-01-30T05:44:58;-0.70;1.00
6355;DHT22;3210;48.708;9.030;2024-01-30T05:47:47;-0.60;99.90
6355;DHT22;3210;48.708;9.030;2024-01-30T05:50:25;-0.60;1.00
6355;DHT22;3210;48.708;9.030;2024-01-30T05:52:57;-0.60;17.00
6355;DHT22;3210;48.708;9.030;2024-01-30T05:55:40;-0.60;1.30
6355;DHT22;3210;48.708;9.030;2024-01-30T05:58:35;-0.70;1.00
6355;DHT22;3210;48.708;9.030;2024-01-30T06:01:18;-0.60;1.00
6355;DHT22;3210;48.708;9.030;2024-01-30T06:04:01;-0.70;1.00
6355;DHT22;3210;48.708;9.030;2024-01-30T06:06:36;-0.70;1.00
6355;DHT22;3210;48.708;9.030;2024-01-30T06:09:41;-0.60;1.00
6355;DHT22;3210;48.708;9.030;2024-01-30T06:12:09;-0.60;1.00
6355;DHT22;3210;48.708;9.030;2024-01-30T06:14:47;-0.50;1.00
6355;DHT22;3210;48.708;9.030;2024-01-30T06:17:29;-0.50;1.00
6355;DHT22;3210;48.708;9.030;2024-01-30T06:19:58;-0.50;1.00
6355;DHT22;3210;48.708;9.030;2024-01-30T06:22:29;-0.50;99.90
6355;DHT22;3210;48.708;9.030;2024-01-30T06:25:11;-0.50;99.90
6355;DHT22;3210;48.708;9.030;2024-01-30T06:27:54;-0.40;99.90
6355;DHT22;3210;48.708;9.030;2024-01-30T06:30:44;-0.50;99.90
6355;DHT22;3210;48.708;9.030;2024-01-30T06:33:12;-0.50;99.90
6355;DHT22;3210;48.708;9.030;2024-01-30T06:35:54;-0.60;99.90
6355;DHT22;3210;48.708;9.030;2024-01-30T06:38:26;-0.60;99.90
6355;DHT22;3210;48.708;9.030;2024-01-30T06:40:56;-0.70;99.90
6355;DHT22;3210;48.708;9.030;2024-01-30T06:43:36;-0.60;1.00
6355;DHT22;3210;48.708;9.030;2024-01-30T06:46:16;-0.70;1.00
6355;DHT22;3210;48.708;9.030;2024-01-30T06:48:43;-0.50;1.00
6355;DHT22;3210;48.708;9.030;2024-01-30T06:51:11;-0.40;1.00
6355;DHT22;3210;48.708;9.030;2024-01-30T06:53:42;-0.40;99.90
6355;DHT22;3210;48.708;9.030;2024-01-30T06:56:28;-0.50;99.90
6355;DHT22;3210;48.708;9.030;2024-01-30T06:58:56;-0.50;99.90
6355;DHT22;3210;48.708;9.030;2024-01-30T07:01:29;-0.40;99.90
6355;DHT22;3210;48.708;9.030;2024-01-30T07:03:58;-0.30;99.90
6355;DHT22;3210;48.708;9.030;2024-01-30T07:06:39;-0.40;99.90
6355;DHT22;3210;48.708;9.030;2024-01-30T07:09:08;-0.30;99.90
6355;DHT22;3210;48.708;9.030;2024-01-30T07:11:43;-0.30;99.90
6355;DHT22;3210;48.708;9.030;2024-01-30T07:14:24;-0.50;99.90
6355;DHT22;3210;48.708;9.030;2024-01-30T07:20:02;-0.40;99.90
6355;DHT22;3210;48.708;9.030;2024-01-30T07:22:36;-0.40;99.90
6355;DHT22;3210;48.708;9.030;2024-01-30T07:36:28;-0.30;99.90
6355;DHT22;3210;48.708;9.030;2024-01-30T07:39:08;-0.30;99.90
6355;DHT22;3210;48.708;9.030;2024-01-30T07:47:51;0.00;99.90
6355;DHT22;3210;48.708;9.030;2024-01-30T07:50:46;0.10;99.90
6355;DHT22;3210;48.708;9.030;2024-01-30T07:53:34;0.20;99.90
6355;DHT22;3210;48.708;9.030;2024-01-30T07:56:11;0.00;99.90
6355;DHT22;3210;48.708;9.030;2024-01-30T07:58:39;0.20;99.90
6355;DHT22;3210;48.708;9.030;2024-01-30T08:01:20;0.30;99.90
6355;DHT22;3210;48.708;9.030;2024-01-30T08:04:03;0.50;99.90
6355;DHT22;3210;48.708;9.030;2024-01-30T08:32:40;1.70;1.00
6355;DHT22;3210;48.708;9.030;2024-01-30T08:35:50;1.80;99.90
6355;DHT22;3210;48.708;9.030;2024-01-30T08:38:49;1.90;99.90
6355;DHT22;3210;48.708;9.030;2024-01-30T08:42:11;2.00;99.90
6355;DHT22;3210;48.708;9.030;2024-01-30T09:08:37;2.70;1.00
6355;DHT22;3210;48.708;9.030;2024-01-30T09:11:13;3.00;1.00
6355;DHT22;3210;48.708;9.030;2024-01-30T09:13:54;3.20;1.00
6355;DHT22;3210;48.708;9.030;2024-01-30T09:16:27;3.30;1.00
6355;DHT22;3210;48.708;9.030;2024-01-30T09:19:03;3.40;1.00
6355;DHT22;3210;48.708;9.030;2024-01-30T09:21:47;3.50;1.00
6355;DHT22;3210;48.708;9.030;2024-01-30T09:24:32;3.70;99.90
6355;DHT22;3210;48.708;9.030;2024-01-30T09:27:00;3.90;99.90
6355;DHT22;3210;48.708;9.030;2024-01-30T09:29:43;4.10;99.90
6355;DHT22;3210;48.708;9.030;2024-01-30T09:32:24;4.20;99.90
6355;DHT22;3210;48.708;9.030;2024-01-30T09:34:54;4.30;99.90
6355;DHT22;3210;48.708;9.030;2024-01-30T09:37:25;4.40;99.90
6355;DHT22;3210;48.708;9.030;2024-01-30T09:39:56;4.50;99.90
6355;DHT22;3210;48.708;9.030;2024-01-30T09:42:42;4.60;99.90
6355;DHT22;3210;48.708;9.030;2024-01-30T09:45:35;4.80;99.90
6355;DHT22;3210;48.708;9.030;2024-01-30T09:48:11;4.90;99.90
6355;DHT22;3210;48.708;9.030;2024-01-30T09:50:49;5.10;99.90
6355;DHT22;3210;48.708;9.030;2024-01-30T09:53:26;5.10;99.90
6355;DHT22;3210;48.708;9.030;2024-01-30T09:56:20;5.20;99.90
6355;DHT22;3210;48.708;9.030;2024-01-30T10:12:53;5.40;99.90
6355;DHT22;3210;48.708;9.030;2024-01-30T10:15:22;5.90;8.20
6355;DHT22;3210;48.708;9.030;2024-01-30T10:18:19;6.20;1.00
6355;DHT22;3210;48.708;9.030;2024-01-30T10:21:01;6.40;1.00
6355;DHT22;3210;48.708;9.030;2024-01-30T10:23:54;6.60;1.00
6355;DHT22;3210;48.708;9.030;2024-01-30T10:27:05;6.80;1.00
6355;DHT22;3210;48.708;9.030;2024-01-30T10:30:09;6.80;1.00
6355;DHT22;3210;48.708;9.030;2024-01-30T10:32:43;6.90;1.00
6355;DHT22;3210;48.708;9.030;2024-01-30T10:35:22;7.10;1.00
6355;DHT22;3210;48.708;9.030;2024-01-30T10:38:12;7.30;1.00
6355;DHT22;3210;48.708;9.030;2024-01-30T10:40:48;7.30;1.00
6355;DHT22;3210;48.708;9.030;2024-01-30T10:43:31;7.40;1.00
6355;DHT22;3210;48.708;9.030;2024-01-30T10:46:23;7.60;1.00
6355;DHT22;3210;48.708;9.030;2024-01-30T10:49:05;7.70;1.00
6355;DHT22;3210;48.708;9.030;2024-01-30T10:51:56;7.80;1.00
6355;DHT22;3210;48.708;9.030;2024-01-30T10:55:07;8.00;1.00
6355;DHT22;3210;48.708;9.030;2024-01-30T10:57:42;8.10;1.00
6355;DHT22;3210;48.708;9.030;2024-01-30T11:00:31;8.20;1.00
6355;DHT22;3210;48.708;9.030;2024-01-30T11:03:19;8.20;1.00
6355;DHT22;3210;48.708;9.030;2024-01-30T11:06:28;8.40;1.00
6355;DHT22;3210;48.708;9.030;2024-01-30T11:09:10;8.50;1.00
6355;DHT22;3210;48.708;9.030;2024-01-30T11:12:11;8.60;1.00
6355;DHT22;3210;48.708;9.030;2024-01-30T11:14:39;8.60;1.00
6355;DHT22;3210;48.708;9.030;2024-01-30T11:17:11;8.80;1.00
6355;DHT22;3210;48.708;9.030;2024-01-30T11:20:09;8.80;1.00
6355;DHT22;3210;48.708;9.030;2024-01-30T11:22:44;8.90;1.00
6355;DHT22;3210;48.708;9.030;2024-01-30T11:25:34;8.90;1.00
6355;DHT22;3210;48.708;9.030;2024-01-30T11:28:13;9.00;1.00
6355;DHT22;3210;48.708;9.030;2024-01-30T11:31:19;8.90;1.00
6355;DHT22;3210;48.708;9.030;2024-01-30T11:34:06;9.10;1.00
6355;DHT22;3210;48.708;9.030;2024-01-30T11:37:14;9.30;1.00
6355;DHT22;3210;48.708;9.030;2024-01-30T11:40:07;9.30;1.00
6355;DHT22;3210;48.708;9.030;2024-01-30T11:46:27;9.50;1.00
6355;DHT22;3210;48.708;9.030;2024-01-30T11:48:50;9.60;1.00
6355;DHT22;3210;48.708;9.030;2024-01-30T11:51:24;9.60;1.00
6355;DHT22;3210;48.708;9.030;2024-01-30T11:53:57;9.50;1.00
6355;DHT22;3210;48.708;9.030;2024-01-30T11:56:39;9.70;1.00
6355;DHT22;3210;48.708;9.030;2024-01-30T11:59:35;9.60;1.00
6355;DHT22;3210;48.708;9.030;2024-01-30T12:02:56;9.60;1.00
6355;DHT22;3210;48.708;9.030;2024-01-30T12:05:33;9.60;1.00
6355;DHT22;3210;48.708;9.030;2024-01-30T12:08:18;9.60;1.00
6355;DHT22;3210;48.708;9.030;2024-01-30T12:11:21;9.90;1.00
6355;DHT22;3210;48.708;9.030;2024-01-30T12:13:59;9.90;1.00
6355;DHT22;3210;48.708;9.030;2024-01-30T12:16:48;9.90;1.00
6355;DHT22;3210;48.708;9.030;2024-01-30T12:20:10;9.90;1.00
6355;DHT22;3210;48.708;9.030;2024-01-30T12:22:56;10.10;1.00
6355;DHT22;3210;48.708;9.030;2024-01-30T12:29:14;10.20;1.00
6355;DHT22;3210;48.708;9.030;2024-01-30T12:32:23;10.30;1.00
6355;DHT22;3210;48.708;9.030;2024-01-30T12:38:08;10.50;1.00
6355;DHT22;3210;48.708;9.030;2024-01-30T12:41:21;10.50;1.00
6355;DHT22;3210;48.708;9.030;2024-01-30T12:51:03;10.70;1.00
6355;DHT22;3210;48.708;9.030;2024-01-30T12:54:08;10.70;1.00
6355;DHT22;3210;48.708;9.030;2024-01-30T12:57:28;10.80;1.00
6355;DHT22;3210;48.708;9.030;2024-01-30T13:03:09;10.90;1.00
6355;DHT22;3210;48.708;9.030;2024-01-30T13:40:51;11.20;1.00
6355;DHT22;3210;48.708;9.030;2024-01-30T13:43:43;11.20;1.00
6355;DHT22;3210;48.708;9.030;2024-01-30T13:46:54;11.10;1.00
6355;DHT22;3210;48.708;9.030;2024-01-30T13:50:37;11.20;1.00
6355;DHT22;3210;48.708;9.030;2024-01-30T13:53:14;11.20;1.00
6355;DHT22;3210;48.708;9.030;2024-01-30T13:59:01;11.30;1.00
6355;DHT22;3210;48.708;9.030;2024-01-30T14:02:12;11.30;1.00
6355;DHT22;3210;48.708;9.030;2024-01-30T14:04:58;11.20;1.00
6355;DHT22;3210;48.708;9.030;2024-01-30T14:07:53;11.20;1.00
6355;DHT22;3210;48.708;9.030;2024-01-30T14:10:43;11.10;1.00
6355;DHT22;3210;48.708;9.030;2024-01-30T14:13:15;10.90;1.00
6355;DHT22;3210;48.708;9.030;2024-01-30T14:19:27;11.00;1.00
6355;DHT22;3210;48.708;9.030;2024-01-30T14:22:26;11.10;1.00
6355;DHT22;3210;48.708;9.030;2024-01-30T14:25:12;11.00;1.00
6355;DHT22;3210;48.708;9.030;2024-01-30T14:28:09;11.00;1.00
6355;DHT22;3210;48.708;9.030;2024-01-30T14:31:11;11.00;1.00
6355;DHT22;3210;48.708;9.030;2024-01-30T14:33:52;11.10;1.00
6355;DHT22;3210;48.708;9.030;2024-01-30T14:40:27;10.80;1.00
6355;DHT22;3210;48.708;9.030;2024-01-30T14:43:03;10.70;1.00
6355;DHT22;3210;48.708;9.030;2024-01-30T14:49:08;10.70;1.00
6355;DHT22;3210;48.708;9.030;2024-01-30T14:51:54;10.70;1.00
6355;DHT22;3210;48.708;9.030;2024-01-30T14:55:01;10.70;1.00
6355;DHT22;3210;48.708;9.030;2024-01-30T15:07:30;10.40;1.00
6355;DHT22;3210;48.708;9.030;2024-01-30T15:11:28;10.40;1.00
6355;DHT22;3210;48.708;9.030;2024-01-30T15:13:57;10.30;1.00
6355;DHT22;3210;48.708;9.030;2024-01-30T15:17:06;10.40;1.00
6355;DHT22;3210;48.708;9.030;2024-01-30T15:19:43;10.30;1.00
6355;DHT22;3210;48.708;9.030;2024-01-30T15:22:36;10.10;1.00
6355;DHT22;3210;48.708;9.030;2024-01-30T15:25:25;10.00;1.00
6355;DHT22;3210;48.708;9.030;2024-01-30T15:28:15;10.00;1.00
6355;DHT22;3210;48.708;9.030;2024-01-30T15:31:02;9.80;1.00
6355;DHT22;3210;48.708;9.030;2024-01-30T15:33:32;9.70;1.00
6355;DHT22;3210;48.708;9.030;2024-01-30T15:36:00;9.60;1.00
6355;DHT22;3210;48.708;9.030;2024-01-30T15:38:34;9.50;1.00
6355;DHT22;3210;48.708;9.030;2024-01-30T15:41:18;9.50;1.00
6355;DHT22;3210;48.708;9.030;2024-01-30T15:44:15;9.30;1.00
6355;DHT22;3210;48.708;9.030;2024-01-30T15:50:42;9.20;1.00
6355;DHT22;3210;48.708;9.030;2024-01-30T15:57:12;9.10;1.00
6355;DHT22;3210;48.708;9.030;2024-01-30T16:00:03;9.00;1.00
6355;DHT22;3210;48.708;9.030;2024-01-30T16:03:00;8.90;1.00
6355;DHT22;3210;48.708;9.030;2024-01-30T16:05:45;8.80;1.00
6355;DHT22;3210;48.708;9.030;2024-01-30T16:08:31;8.60;1.00
6355;DHT22;3210;48.708;9.030;2024-01-30T18:06:24;6.40;49.60
6355;DHT22;3210;48.708;9.030;2024-01-30T18:09:24;6.30;87.80
6355;DHT22;3210;48.708;9.030;2024-01-30T18:12:18;6.40;99.90
6355;DHT22;3210;48.708;9.030;2024-01-30T18:15:01;6.30;99.90
6355;DHT22;3210;48.708;9.030;2024-01-30T18:17:46;6.30;99.90
6355;DHT22;3210;48.708;9.030;2024-01-30T18:20:32;6.20;99.90
6355;DHT22;3210;48.708;9.030;2024-01-30T18:23:15;6.30;99.90
6355;DHT22;3210;48.708;9.030;2024-01-30T18:25:51;6.30;99.90
6355;DHT22;3210;48.708;9.030;2024-01-30T18:28:31;6.20;99.90
6355;DHT22;3210;48.708;9.030;2024-01-30T18:31:28;6.20;99.90
6355;DHT22;3210;48.708;9.030;2024-01-30T18:34:15;6.10;99.90
6355;DHT22;3210;48.708;9.030;2024-01-30T18:37:02;6.00;99.90
6355;DHT22;3210;48.708;9.030;2024-01-30T18:43:07;6.10;99.90
6355;DHT22;3210;48.708;9.030;2024-01-30T18:45:41;6.30;99.90
6355;DHT22;3210;48.708;9.030;2024-01-30T18:48:10;6.40;99.90
6355;DHT22;3210;48.708;9.030;2024-01-30T18:50:43;6.20;99.90
6355;DHT22;3210;48.708;9.030;2024-01-30T18:53:57;6.00;99.90
6355;DHT22;3210;48.708;9.030;2024-01-30T18:56:55;5.90;99.90
6355;DHT22;3210;48.708;9.030;2024-01-30T19:00:11;5.90;99.90
6355;DHT22;3210;48.708;9.030;2024-01-30T19:02:43;6.00;99.90
6355;DHT22;3210;48.708;9.030;2024-01-30T19:05:14;6.00;99.90
6355;DHT22;3210;48.708;9.030;2024-01-30T19:07:55;6.00;99.90
6355;DHT22;3210;48.708;9.030;2024-01-30T19:10:31;6.00;99.90
6355;DHT22;3210;48.708;9.030;2024-01-30T19:13:01;6.10;99.90
6355;DHT22;3210;48.708;9.030;2024-01-30T19:15:32;6.00;99.90
6355;DHT22;3210;48.708;9.030;2024-01-30T19:18:01;6.00;99.90
6355;DHT22;3210;48.708;9.030;2024-01-30T19:20:28;6.00;99.90
6355;DHT22;3210;48.708;9.030;2024-01-30T19:22:55;6.00;99.90
6355;DHT22;3210;48.708;9.030;2024-01-30T19:25:25;5.80;99.90
6355;DHT22;3210;48.708;9.030;2024-01-30T19:27:55;5.90;99.90
6355;DHT22;3210;48.708;9.030;2024-01-30T19:30:24;5.80;99.90
6355;DHT22;3210;48.708;9.030;2024-01-30T19:32:53;5.80;99.90
6355;DHT22;3210;48.708;9.030;2024-01-30T19:35:20;5.80;99.90
6355;DHT22;3210;48.708;9.030;2024-01-30T19:37:47;5.80;99.90
6355;DHT22;3210;48.708;9.030;2024-01-30T19:40:16;5.90;99.90
6355;DHT22;3210;48.708;9.030;2024-01-30T19:42:44;5.90;99.90
6355;DHT22;3210;48.708;9.030;2024-01-30T19:45:11;5.90;99.90
6355;DHT22;3210;48.708;9.030;2024-01-30T19:47:38;5.90;99.90
6355;DHT22;3210;48.708;9.030;2024-01-30T19:50:08;5.80;99.90
6355;DHT22;3210;48.708;9.030;2024-01-30T19:52:36;5.70;99.90
6355;DHT22;3210;48.708;9.030;2024-01-30T19:55:05;5.80;99.90
6355;DHT22;3210;48.708;9.030;2024-01-30T19:57:34;5.80;99.90
6355;DHT22;3210;48.708;9.030;2024-01-30T20:00:01;5.80;99.90
6355;DHT22;3210;48.708;9.030;2024-01-30T20:02:28;5.70;99.90
6355;DHT22;3210;48.708;9.030;2024-01-30T20:05:01;5.60;99.90
6355;DHT22;3210;48.708;9.030;2024-01-30T20:07:32;5.70;99.90
6355;DHT22;3210;48.708;9.030;2024-01-30T20:10:00;5.60;99.90
6355;DHT22;3210;48.708;9.030;2024-01-30T20:12:27;5.60;99.90
6355;DHT22;3210;48.708;9.030;2024-01-30T20:14:56;5.60;1.00
6355;DHT22;3210;48.708;9.030;2024-01-30T20:17:29;5.60;1.00
6355;DHT22;3210;48.708;9.030;2024-01-30T20:20:16;5.80;1.00
6355;DHT22;3210;48.708;9.030;2024-01-30T20:22:58;5.70;1.00
6355;DHT22;3210;48.708;9.030;2024-01-30T20:25:25;5.60;1.00
6355;DHT22;3210;48.708;9.030;2024-01-30T20:27:58;5.60;1.00
6355;DHT22;3210;48.708;9.030;2024-01-30T20:30:26;5.60;1.00
6355;DHT22;3210;48.708;9.030;2024-01-30T20:32:55;5.50;1.00
6355;DHT22;3210;48.708;9.030;2024-01-30T20:35:24;5.50;1.00
6355;DHT22;3210;48.708;9.030;2024-01-30T20:37:57;5.50;1.00
6355;DHT22;3210;48.708;9.030;2024-01-30T20:40:25;5.60;1.00
6355;DHT22;3210;48.708;9.030;2024-01-30T20:43:01;5.40;1.00
6355;DHT22;3210;48.708;9.030;2024-01-30T20:45:28;5.40;1.00
6355;DHT22;3210;48.708;9.030;2024-01-30T20:47:58;5.30;1.00
6355;DHT22;3210;48.708;9.030;2024-01-30T20:50:30;5.20;1.00
6355;DHT22;3210;48.708;9.030;2024-01-30T20:53:10;5.10;1.00
6355;DHT22;3210;48.708;9.030;2024-01-30T20:55:44;5.10;1.00
6355;DHT22;3210;48.708;9.030;2024-01-30T20:58:21;5.00;1.00
6355;DHT22;3210;48.708;9.030;2024-01-30T21:01:11;4.90;1.00
6355;DHT22;3210;48.708;9.030;2024-01-30T21:03:48;4.90;1.00
6355;DHT22;3210;48.708;9.030;2024-01-30T21:06:35;4.80;1.00
6355;DHT22;3210;48.708;9.030;2024-01-30T21:09:58;4.70;1.00
6355;DHT22;3210;48.708;9.030;2024-01-30T21:12:28;4.70;1.00
6355;DHT22;3210;48.708;9.030;2024-01-30T21:15:10;4.70;1.00
6355;DHT22;3210;48.708;9.030;2024-01-30T21:17:39;4.70;1.00
6355;DHT22;3210;48.708;9.030;2024-01-30T21:20:11;4.80;1.00
6355;DHT22;3210;48.708;9.030;2024-01-30T21:22:40;4.60;1.00
6355;DHT22;3210;48.708;9.030;2024-01-30T21:25:10;4.60;1.00
6355;DHT22;3210;48.708;9.030;2024-01-30T21:27:38;4.60;1.00
6355;DHT22;3210;48.708;9.030;2024-01-30T21:30:07;4.50;3.90
6355;DHT22;3210;48.708;9.030;2024-01-30T21:32:35;4.60;1.00
6355;DHT22;3210;48.708;9.030;2024-01-30T21:35:04;4.70;1.00
6355;DHT22;3210;48.708;9.030;2024-01-30T21:37:33;4.50;1.00
6355;DHT22;3210;48.708;9.030;2024-01-30T21:40:02;4.50;1.00
6355;DHT22;3210;48.708;9.030;2024-01-30T21:42:31;4.50;1.00
6355;DHT22;3210;48.708;9.030;2024-01-30T21:44:59;4.40;1.00
6355;DHT22;3210;48.708;9.030;2024-01-30T21:47:35;4.40;1.00
6355;DHT22;3210;48.708;9.030;2024-01-30T21:50:01;4.40;1.00
6355;DHT22;3210;48.708;9.030;2024-01-30T21:52:29;4.30;1.00
6355;DHT22;3210;48.708;9.030;2024-01-30T21:54:56;4.30;1.00
6355;DHT22;3210;48.708;9.030;2024-01-30T21:57:23;4.30;1.00
6355;DHT22;3210;48.708;9.030;2024-01-30T21:59:53;4.30;1.00
6355;DHT22;3210;48.708;9.030;2024-01-30T22:02:39;4.20;4.50
6355;DHT22;3210;48.708;9.030;2024-01-30T22:05:19;4.20;43.90
6355;DHT22;3210;48.708;9.030;2024-01-30T22:07:53;4.20;85.50
6355;DHT22;3210;48.708;9.030;2024-01-30T22:10:37;4.10;82.10
6355;DHT22;3210;48.708;9.030;2024-01-30T22:13:19;4.10;99.90
6355;DHT22;3210;48.708;9.030;2024-01-30T22:16:04;4.20;99.90
6355;DHT22;3210;48.708;9.030;2024-01-30T22:18:39;4.10;99.90
6355;DHT22;3210;48.708;9.030;2024-01-30T22:21:14;4.10;99.90
6355;DHT22;3210;48.708;9.030;2024-01-30T22:23:44;4.10;99.90
6355;DHT22;3210;48.708;9.030;2024-01-30T22:26:42;4.10;99.90
6355;DHT22;3210;48.708;9.030;2024-01-30T22:29:09;4.10;99.90
6355;DHT22;3210;48.708;9.030;2024-01-30T22:31:37;4.20;99.90
6355;DHT22;3210;48.708;9.030;2024-01-30T22:34:20;4.20;99.90
6355;DHT22;3210;48.708;9.030;2024-01-30T22:36:50;4.30;99.90
6355;DHT22;3210;48.708;9.030;2024-01-30T22:39:35;4.40;99.90
6355;DHT22;3210;48.708;9.030;2024-01-30T22:42:11;4.30;99.90
6355;DHT22;3210;48.708;9.030;2024-01-30T22:44:40;4.30;99.90
6355;DHT22;3210;48.708;9.030;2024-01-30T22:47:12;4.40;99.90
6355;DHT22;3210;48.708;9.030;2024-01-30T22:49:40;4.40;99.90
6355;DHT22;3210;48.708;9.030;2024-01-30T22:52:10;4.40;99.90
6355;DHT22;3210;48.708;9.030;2024-01-30T22:54:50;4.40;99.90
6355;DHT22;3210;48.708;9.030;2024-01-30T22:57:36;4.50;99.90
6355;DHT22;3210;48.708;9.030;2024-01-30T23:00:09;4.60;99.90
6355;DHT22;3210;48.708;9.030;2024-01-30T23:02:41;4.50;99.90
6355;DHT22;3210;48.708;9.030;2024-01-30T23:05:09;4.50;99.90
6355;DHT22;3210;48.708;9.030;2024-01-30T23:07:40;4.50;99.90
6355;DHT22;3210;48.708;9.030;2024-01-30T23:10:21;4.50;99.90